Time;durP1;ratioP1;P1;durP2;ratioP2;P2;SDS_P1;SDS_P2;PMS_P1;PMS_P2;Temp;Humidity;BMP_temperature;BMP_pressure;BME280_temperature;BME280_humidity;BME280_pressure;Samples;Min_cycle;Max_cycle;Signal;HPM_P1;HPM_P2
2023/10/04 00:00:21;;;;;;;1.35;1.25;;;15.00;72.00;;;;;;4983868;28;20053;-63
2023/10/04 00:02:48;;;;;;;2.83;1.40;;;15.00;72.10;;;;;;4988378;28;20495;-62
2023/10/04 00:05:15;;;;;;;1.30;1.10;;;14.90;72.30;;;;;;4987526;28;20030;-63
2023/10/04 00:07:46;;;;;;;2.22;1.38;;;14.90;72.30;;;;;;4986083;28;20038;-62
2023/10/04 00:10:13;;;;;;;3.05;1.20;;;14.90;72.60;;;;;;4987895;28;20030;-63
2023/10/04 00:12:39;;;;;;;1.67;1.23;;;14.90;72.70;;;;;;4984858;28;20030;-63
2023/10/04 00:15:09;;;;;;;2.50;1.38;;;14.90;72.80;;;;;;4983088;28;20061;-63
2023/10/04 00:17:36;;;;;;;1.58;1.05;;;14.90;72.70;;;;;;4980757;28;20046;-63
2023/10/04 00:20:04;;;;;;;1.55;1.10;;;14.90;72.60;;;;;;4987858;28;20042;-62
2023/10/04 00:22:29;;;;;;;3.00;1.27;;;14.90;73.40;;;;;;4976985;28;20050;-63
2023/10/04 00:24:57;;;;;;;2.38;1.15;;;14.90;72.60;;;;;;4981696;28;20097;-63
2023/10/04 00:27:23;;;;;;;1.88;1.15;;;14.90;72.40;;;;;;4978524;28;20178;-63
2023/10/04 00:29:49;;;;;;;1.42;1.00;;;14.80;72.50;;;;;;4986693;28;20038;-63
2023/10/04 00:32:15;;;;;;;2.10;1.10;;;14.80;72.50;;;;;;4984647;28;20129;-63
2023/10/04 00:34:40;;;;;;;1.35;1.10;;;14.70;72.60;;;;;;4980374;28;20130;-62
2023/10/04 00:37:07;;;;;;;1.65;1.15;;;14.70;72.70;;;;;;4985709;28;20574;-63
2023/10/04 00:39:34;;;;;;;3.80;1.15;;;14.70;72.80;;;;;;4987588;28;20092;-63
2023/10/04 00:42:00;;;;;;;1.63;1.27;;;14.70;73.70;;;;;;4987526;28;20035;-63
2023/10/04 00:44:26;;;;;;;1.40;1.10;;;14.70;72.80;;;;;;4987039;28;20033;-64
2023/10/04 00:46:52;;;;;;;1.63;1.20;;;14.60;72.70;;;;;;4985858;28;20783;-63
2023/10/04 00:49:18;;;;;;;2.25;1.30;;;14.60;72.90;;;;;;4987356;28;20365;-63
2023/10/04 00:51:44;;;;;;;1.73;1.20;;;14.60;73.00;;;;;;4987044;28;20034;-62
2023/10/04 00:54:10;;;;;;;1.52;1.08;;;14.50;73.00;;;;;;4987582;28;20034;-63
2023/10/04 00:56:38;;;;;;;1.70;1.38;;;14.50;73.00;;;;;;4986739;28;20041;-63
2023/10/04 00:59:04;;;;;;;3.08;1.10;;;14.50;73.20;;;;;;4987397;28;20030;-63
2023/10/04 01:01:33;;;;;;;2.20;1.35;;;14.40;73.10;;;;;;4985016;28;20066;-63
2023/10/04 01:04:03;;;;;;;1.40;1.30;;;14.40;73.30;;;;;;4986190;28;20042;-63
2023/10/04 01:06:30;;;;;;;1.17;1.08;;;14.40;73.20;;;;;;4982924;28;20045;-63
2023/10/04 01:08:56;;;;;;;1.77;1.10;;;14.30;73.00;;;;;;4984535;28;20498;-63
2023/10/04 01:11:22;;;;;;;3.45;1.58;;;14.30;73.00;;;;;;4981454;28;20049;-63
2023/10/04 01:13:48;;;;;;;2.35;1.10;;;14.30;73.20;;;;;;4983315;28;20034;-62
2023/10/04 01:16:15;;;;;;;1.40;1.20;;;14.20;73.20;;;;;;4986003;28;20137;-63
2023/10/04 01:18:44;;;;;;;1.50;0.93;;;14.10;73.30;;;;;;4986015;28;20481;-62
2023/10/04 01:21:10;;;;;;;2.58;1.17;;;14.10;73.40;;;;;;4986035;28;20030;-62
2023/10/04 01:23:39;;;;;;;2.30;1.17;;;14.00;73.40;;;;;;4984903;28;20053;-63
2023/10/04 01:26:05;;;;;;;1.63;1.05;;;14.00;73.70;;;;;;4986295;28;20125;-63
2023/10/04 01:28:30;;;;;;;3.30;1.33;;;14.00;73.60;;;;;;4985292;28;20208;-63
2023/10/04 01:31:00;;;;;;;2.75;1.27;;;14.00;73.50;;;;;;4986641;28;20044;-63
2023/10/04 01:33:28;;;;;;;3.28;1.52;;;13.90;73.50;;;;;;4985778;28;20081;-63
2023/10/04 01:35:54;;;;;;;1.83;1.20;;;13.80;73.40;;;;;;4986520;28;20039;-63
2023/10/04 01:38:32;;;;;;;1.30;1.20;;;13.70;73.50;;;;;;4986050;28;20030;-62
2023/10/04 01:40:58;;;;;;;2.20;1.10;;;13.60;73.90;;;;;;4985545;28;20611;-63
2023/10/04 01:43:25;;;;;;;1.48;1.20;;;13.60;74.00;;;;;;4985472;28;20042;-62
2023/10/04 01:45:52;;;;;;;2.22;1.13;;;13.50;74.20;;;;;;4985213;28;20042;-63
2023/10/04 01:48:20;;;;;;;3.47;1.45;;;13.50;74.40;;;;;;4983604;28;20041;-63
2023/10/04 01:50:51;;;;;;;1.83;1.27;;;13.50;74.60;;;;;;4981593;28;20049;-63
2023/10/04 01:53:22;;;;;;;1.95;1.30;;;13.40;74.50;;;;;;4982550;28;20034;-62
2023/10/04 01:55:48;;;;;;;2.00;1.30;;;13.50;74.70;;;;;;4983582;28;20053;-63
2023/10/04 01:58:15;;;;;;;5.05;1.45;;;13.40;74.60;;;;;;4981076;28;20026;-61
2023/10/04 02:00:42;;;;;;;2.63;1.15;;;13.40;74.60;;;;;;4982732;28;20065;-63
2023/10/04 02:03:09;;;;;;;1.77;1.05;;;13.40;74.70;;;;;;4983590;28;20034;-63
2023/10/04 02:05:40;;;;;;;3.53;1.30;;;13.40;74.60;;;;;;4981964;28;20788;-63
2023/10/04 02:08:08;;;;;;;2.22;1.40;;;13.40;74.60;;;;;;4981613;28;20044;-63
2023/10/04 02:10:34;;;;;;;1.98;1.20;;;13.40;74.60;;;;;;4979984;28;20053;-63
2023/10/04 02:13:00;;;;;;;2.97;1.20;;;13.30;74.60;;;;;;4982390;28;20069;-62
2023/10/04 02:15:26;;;;;;;2.10;1.27;;;13.30;74.50;;;;;;4980531;28;20465;-63
2023/10/04 02:17:53;;;;;;;2.17;1.17;;;13.20;74.40;;;;;;4983643;28;20089;-62
2023/10/04 02:20:24;;;;;;;3.45;1.20;;;13.20;74.50;;;;;;4984101;28;20113;-63
2023/10/04 02:22:55;;;;;;;2.08;1.30;;;13.20;74.60;;;;;;4980870;28;20045;-63
2023/10/04 02:25:22;;;;;;;4.05;1.35;;;13.10;74.50;;;;;;4981645;28;20121;-62
2023/10/04 02:27:51;;;;;;;2.17;1.30;;;13.10;74.40;;;;;;4983433;28;20045;-61
2023/10/04 02:30:24;;;;;;;1.90;1.20;;;13.10;74.40;;;;;;4983963;28;20042;-63
2023/10/04 02:32:50;;;;;;;1.63;1.20;;;13.00;74.40;;;;;;4983686;28;20034;-62
2023/10/04 02:35:41;;;;;;;2.00;1.13;;;13.00;74.80;;;;;;4982285;28;20070;-62
2023/10/04 02:38:16;;;;;;;1.65;1.20;;;13.00;75.10;;;;;;4982352;28;20031;-63
2023/10/04 02:40:43;;;;;;;3.08;1.50;;;12.90;74.80;;;;;;4979637;28;20062;-62
2023/10/04 02:43:09;;;;;;;2.55;1.30;;;12.90;74.70;;;;;;4982747;28;20042;-62
2023/10/04 02:45:36;;;;;;;2.50;1.30;;;12.90;74.60;;;;;;4980198;28;20057;-63
2023/10/04 02:48:04;;;;;;;2.33;1.30;;;12.90;74.70;;;;;;4983746;28;20041;-62
2023/10/04 02:50:30;;;;;;;1.75;1.40;;;12.80;74.90;;;;;;4983534;28;20402;-63
2023/10/04 02:52:56;;;;;;;2.28;1.38;;;12.80;74.90;;;;;;4983407;28;20038;-62
2023/10/04 02:55:22;;;;;;;2.13;1.27;;;12.80;75.10;;;;;;4981561;28;20126;-62
2023/10/04 02:57:52;;;;;;;3.63;1.40;;;12.80;75.00;;;;;;4981886;28;20375;-63
2023/10/04 03:00:19;;;;;;;2.03;1.50;;;12.70;75.10;;;;;;4980817;28;21162;-62
2023/10/04 03:02:47;;;;;;;2.33;1.50;;;12.70;75.10;;;;;;4978825;28;20121;-63
2023/10/04 03:05:15;;;;;;;2.42;1.42;;;12.60;75.40;;;;;;4983917;28;20133;-62
2023/10/04 03:07:41;;;;;;;2.78;1.40;;;12.50;75.90;;;;;;4981150;28;20347;-60
2023/10/04 03:10:08;;;;;;;2.40;1.30;;;12.50;76.30;;;;;;4984723;28;20042;-63
2023/10/04 03:12:33;;;;;;;2.78;1.52;;;12.40;76.60;;;;;;4985529;28;20584;-63
2023/10/04 03:14:59;;;;;;;2.17;1.52;;;12.50;77.00;;;;;;4982174;28;20417;-63
2023/10/04 03:17:25;;;;;;;2.78;1.40;;;12.40;77.20;;;;;;4983529;28;20038;-63
2023/10/04 03:19:51;;;;;;;3.65;1.30;;;12.40;77.50;;;;;;4986300;28;20496;-62
2023/10/04 03:22:19;;;;;;;2.88;1.58;;;12.40;77.70;;;;;;4986082;28;20066;-62
2023/10/04 03:24:47;;;;;;;2.13;1.30;;;12.50;77.60;;;;;;4985491;28;20070;-62
2023/10/04 03:27:12;;;;;;;2.63;1.50;;;12.50;77.70;;;;;;4983951;28;20069;-62
2023/10/04 03:29:39;;;;;;;1.90;1.48;;;12.50;77.80;;;;;;4983217;28;20038;-63
2023/10/04 03:32:05;;;;;;;1.83;1.55;;;12.60;77.90;;;;;;4981433;28;20040;-63
2023/10/04 03:34:31;;;;;;;2.88;1.58;;;12.60;77.70;;;;;;4985373;28;20251;-62
2023/10/04 03:37:08;;;;;;;2.20;1.67;;;12.70;77.70;;;;;;4987325;28;20034;-61
2023/10/04 03:39:34;;;;;;;4.43;2.05;;;12.70;77.70;;;;;;4983884;28;20059;-62
2023/10/04 03:42:00;;;;;;;5.10;3.60;;;12.70;77.50;;;;;;4983720;28;20633;-63
2023/10/04 03:44:26;;;;;;;9.45;6.25;;;12.80;77.40;;;;;;4982201;28;20088;-62
2023/10/04 03:46:53;;;;;;;11.40;7.22;;;12.80;77.20;;;;;;4984941;28;20290;-63
2023/10/04 03:49:21;;;;;;;10.43;6.68;;;12.90;77.20;;;;;;4983890;28;20157;-62
2023/10/04 03:51:50;;;;;;;6.10;3.90;;;12.90;77.20;;;;;;4985654;28;20394;-63
2023/10/04 03:54:15;;;;;;;4.40;2.70;;;12.90;77.00;;;;;;4985623;28;20038;-62
2023/10/04 03:56:41;;;;;;;3.88;1.95;;;12.80;76.80;;;;;;4983916;28;20498;-62
2023/10/04 03:59:08;;;;;;;4.32;2.08;;;12.80;77.00;;;;;;4982052;28;20058;-62
2023/10/04 04:01:33;;;;;;;2.38;1.63;;;12.70;77.00;;;;;;4984876;28;20065;-62
2023/10/04 04:04:03;;;;;;;3.55;1.70;;;12.60;77.30;;;;;;4983660;28;20513;-62
2023/10/04 04:06:32;;;;;;;3.28;1.73;;;12.60;77.70;;;;;;4983806;28;20045;-62
2023/10/04 04:09:00;;;;;;;4.25;2.03;;;12.40;78.00;;;;;;4985923;28;20367;-62
2023/10/04 04:11:25;;;;;;;4.18;2.00;;;12.40;78.10;;;;;;4983704;28;20050;-62
2023/10/04 04:13:51;;;;;;;2.70;1.90;;;12.30;78.20;;;;;;4985669;28;20663;-62
2023/10/04 04:16:17;;;;;;;2.17;1.95;;;12.20;78.50;;;;;;4982291;28;20040;-63
2023/10/04 04:18:44;;;;;;;2.38;1.88;;;12.20;78.60;;;;;;4984029;28;20428;-62
2023/10/04 04:21:10;;;;;;;3.65;1.40;;;12.20;79.00;;;;;;4985438;28;20034;-62
2023/10/04 04:23:36;;;;;;;2.70;1.80;;;12.10;79.30;;;;;;4984581;28;20042;-63
2023/10/04 04:26:05;;;;;;;1.85;1.50;;;12.00;79.40;;;;;;4983806;28;20077;-62
2023/10/04 04:28:34;;;;;;;2.00;1.48;;;12.00;79.40;;;;;;4981468;28;20805;-62
2023/10/04 04:31:00;;;;;;;3.85;1.58;;;12.00;79.70;;;;;;4984092;28;20046;-62
2023/10/04 04:33:28;;;;;;;3.67;1.95;;;11.90;79.80;;;;;;4983014;28;20043;-63
2023/10/04 04:36:00;;;;;;;3.75;2.10;;;11.90;79.80;;;;;;4980902;28;20457;-62
2023/10/04 04:38:28;;;;;;;2.22;1.83;;;12.00;79.60;;;;;;4979992;28;20050;-62
2023/10/04 04:40:58;;;;;;;3.67;2.20;;;12.00;79.50;;;;;;4982772;28;20475;-63
2023/10/04 04:43:36;;;;;;;2.72;2.03;;;12.00;79.50;;;;;;4983955;28;20336;-62
2023/10/04 04:46:06;;;;;;;4.78;2.30;;;12.00;79.30;;;;;;4984582;28;20034;-62
2023/10/04 04:48:36;;;;;;;3.05;1.80;;;12.10;79.00;;;;;;4981404;28;20046;-63
2023/10/04 04:51:12;;;;;;;5.65;2.08;;;12.10;78.70;;;;;;4979126;28;20042;-63
2023/10/04 04:53:42;;;;;;;3.65;2.15;;;12.10;78.40;;;;;;4984693;28;20402;-62
2023/10/04 04:56:13;;;;;;;4.13;2.00;;;12.10;78.10;;;;;;4983040;28;20758;-62
2023/10/04 04:58:41;;;;;;;3.15;2.08;;;12.10;77.80;;;;;;4980345;28;20502;-63
2023/10/04 05:01:13;;;;;;;2.38;1.80;;;12.10;77.70;;;;;;4980421;28;20626;-62
2023/10/04 05:03:45;;;;;;;2.15;1.70;;;12.00;77.50;;;;;;4982221;28;20042;-62
2023/10/04 05:06:33;;;;;;;2.75;2.03;;;12.00;77.50;;;;;;4984009;28;20053;-62
2023/10/04 05:08:58;;;;;;;2.72;2.03;;;11.90;77.60;;;;;;4982010;28;20678;-62
2023/10/04 05:11:24;;;;;;;4.88;2.25;;;11.80;77.90;;;;;;4980985;28;20114;-62
2023/10/04 05:13:51;;;;;;;6.25;2.30;;;11.80;78.60;;;;;;4983060;28;20045;-62
2023/10/04 05:16:17;;;;;;;3.25;2.15;;;11.70;79.00;;;;;;4978755;28;20053;-62
2023/10/04 05:18:43;;;;;;;8.00;1.90;;;11.60;79.40;;;;;;4981783;28;20043;-63
2023/10/04 05:21:10;;;;;;;4.18;1.90;;;11.60;79.60;;;;;;4982192;28;20042;-62
2023/10/04 05:23:36;;;;;;;2.90;1.90;;;11.60;79.60;;;;;;4982001;28;20050;-62
2023/10/04 05:26:03;;;;;;;3.58;2.10;;;11.60;79.60;;;;;;4981702;28;20065;-62
2023/10/04 05:28:29;;;;;;;3.78;2.42;;;11.60;79.40;;;;;;4980958;28;20030;-62
2023/10/04 05:30:55;;;;;;;3.03;2.15;;;11.70;79.00;;;;;;4978310;28;20046;-62
2023/10/04 05:33:22;;;;;;;4.60;2.25;;;11.70;78.60;;;;;;4975177;28;20046;-63
2023/10/04 05:35:53;;;;;;;4.03;2.22;;;11.60;78.40;;;;;;4976503;28;20049;-60
2023/10/04 05:38:19;;;;;;;3.38;2.22;;;11.60;78.50;;;;;;4977512;28;20034;-63
2023/10/04 05:40:46;;;;;;;3.25;2.30;;;11.60;78.40;;;;;;4979309;28;20046;-61
2023/10/04 05:43:13;;;;;;;5.20;2.20;;;11.50;78.60;;;;;;4981702;28;20035;-62
2023/10/04 05:45:42;;;;;;;3.05;2.38;;;11.50;78.90;;;;;;4982309;28;20114;-62
2023/10/04 05:48:11;;;;;;;3.03;2.20;;;11.50;79.50;;;;;;4980159;28;20623;-63
2023/10/04 05:50:36;;;;;;;5.50;2.25;;;11.40;79.80;;;;;;4975438;28;20929;-63
2023/10/04 05:53:19;;;;;;;4.75;2.50;;;11.40;80.20;;;;;;4980073;28;20037;-63
2023/10/04 05:55:45;;;;;;;8.35;2.25;;;11.40;80.50;;;;;;4984416;28;20030;-62
2023/10/04 05:58:10;;;;;;;4.25;2.45;;;11.40;80.70;;;;;;4980424;28;20446;-63
2023/10/04 06:00:42;;;;;;;4.00;2.35;;;11.40;80.90;;;;;;4980734;28;20142;-63
2023/10/04 06:03:11;;;;;;;4.38;2.45;;;11.40;80.80;;;;;;4975966;28;20089;-62
2023/10/04 06:05:39;;;;;;;3.50;2.05;;;11.40;80.90;;;;;;4977739;28;20411;-62
2023/10/04 06:08:06;;;;;;;3.00;2.50;;;11.50;81.10;;;;;;4979000;28;20035;-62
2023/10/04 06:10:33;;;;;;;5.00;2.28;;;11.40;81.20;;;;;;4976044;28;20128;-62
2023/10/04 06:12:59;;;;;;;3.25;2.33;;;11.50;81.40;;;;;;4977372;28;20742;-61
2023/10/04 06:15:25;;;;;;;4.30;2.22;;;11.50;81.50;;;;;;4979199;28;20030;-63
2023/10/04 06:17:52;;;;;;;3.85;1.90;;;11.50;81.50;;;;;;4978234;28;20092;-62
2023/10/04 06:20:27;;;;;;;5.65;1.88;;;11.60;81.50;;;;;;4975213;28;20039;-62
2023/10/04 06:22:59;;;;;;;5.65;1.83;;;11.70;81.40;;;;;;4980824;28;20537;-62
2023/10/04 06:25:27;;;;;;;5.63;1.92;;;11.70;81.30;;;;;;4979789;28;20133;-62
2023/10/04 06:27:56;;;;;;;3.75;1.90;;;11.70;81.20;;;;;;4981606;28;20042;-63
2023/10/04 06:30:24;;;;;;;6.75;2.50;;;11.80;81.40;;;;;;4953509;28;20387;-62
2023/10/04 06:32:50;;;;;;;10.32;2.67;;;11.90;81.30;;;;;;4963492;28;20066;-63
2023/10/04 06:35:16;;;;;;;5.18;1.98;;;11.90;81.30;;;;;;4965098;28;20125;-63
2023/10/04 06:37:42;;;;;;;9.60;2.58;;;12.00;81.50;;;;;;4967687;28;20052;-63
2023/10/04 06:40:15;;;;;;;2.38;1.90;;;12.10;81.60;;;;;;4966021;28;20405;-63
2023/10/04 06:42:43;;;;;;;6.30;2.20;;;12.10;81.60;;;;;;4959785;28;20191;-63
2023/10/04 06:45:09;;;;;;;5.47;2.30;;;12.20;81.50;;;;;;4969262;28;20038;-63
2023/10/04 06:47:35;;;;;;;7.95;2.35;;;12.30;81.50;;;;;;4969340;28;20080;-63
2023/10/04 06:50:02;;;;;;;3.58;2.15;;;12.30;81.60;;;;;;4967244;28;20510;-63
2023/10/04 06:52:28;;;;;;;4.45;2.25;;;12.30;81.70;;;;;;4969224;28;20038;-63
2023/10/04 06:54:53;;;;;;;6.60;2.53;;;12.40;82.00;;;;;;4965636;28;20110;-63
2023/10/04 06:57:20;;;;;;;6.55;2.10;;;12.50;82.20;;;;;;4970872;28;20121;-63
2023/10/04 06:59:46;;;;;;;6.13;2.10;;;12.60;82.40;;;;;;4965207;28;20046;-63
2023/10/04 07:02:12;;;;;;;5.22;2.33;;;12.60;82.50;;;;;;4972800;28;21027;-63
2023/10/04 07:04:37;;;;;;;3.45;2.13;;;12.90;82.50;;;;;;4965861;28;20726;-63
2023/10/04 07:07:03;;;;;;;5.03;2.42;;;12.80;82.40;;;;;;4971729;28;20030;-63
2023/10/04 07:09:28;;;;;;;7.43;2.35;;;12.90;83.10;;;;;;4973551;28;20525;-63
2023/10/04 07:11:54;;;;;;;5.82;2.60;;;12.90;82.60;;;;;;4969558;28;20121;-63
2023/10/04 07:14:20;;;;;;;3.63;2.10;;;12.90;82.10;;;;;;4966934;28;20046;-63
2023/10/04 07:16:45;;;;;;;8.30;2.97;;;13.00;82.10;;;;;;4975228;28;20376;-63
2023/10/04 07:19:12;;;;;;;8.13;3.35;;;13.10;82.00;;;;;;4970742;28;20096;-63
2023/10/04 07:21:37;;;;;;;6.18;3.00;;;13.10;81.90;;;;;;4970241;28;20149;-63
2023/10/04 07:24:03;;;;;;;8.18;3.22;;;13.00;81.70;;;;;;4969692;28;20157;-63
2023/10/04 07:26:34;;;;;;;7.40;2.95;;;13.20;81.90;;;;;;4970975;28;22361;-63
2023/10/04 07:29:00;;;;;;;9.60;2.88;;;13.20;81.70;;;;;;4968584;28;20035;-63
2023/10/04 07:31:25;;;;;;;4.78;2.58;;;13.30;81.90;;;;;;4970856;28;20061;-63
2023/10/04 07:33:51;;;;;;;10.50;2.80;;;13.30;82.00;;;;;;4973864;28;20046;-63
2023/10/04 07:36:17;;;;;;;7.18;3.15;;;13.40;82.30;;;;;;4984163;28;20038;-63
2023/10/04 07:38:42;;;;;;;7.18;3.00;;;13.50;82.40;;;;;;4983815;28;20038;-63
2023/10/04 07:41:08;;;;;;;6.93;2.83;;;13.50;82.60;;;;;;4985148;28;20066;-63
2023/10/04 07:43:35;;;;;;;7.25;2.70;;;13.60;82.60;;;;;;4978990;28;20042;-63
2023/10/04 07:46:01;;;;;;;5.93;2.63;;;13.60;82.70;;;;;;4983044;28;20030;-63
2023/10/04 07:48:27;;;;;;;4.43;2.65;;;13.70;82.70;;;;;;4978036;28;20045;-64
2023/10/04 07:50:52;;;;;;;4.95;2.60;;;13.80;82.60;;;;;;4970805;28;20510;-63
2023/10/04 07:53:21;;;;;;;5.63;2.90;;;13.90;82.40;;;;;;4968060;28;20074;-63
2023/10/04 07:55:49;;;;;;;4.38;2.47;;;14.00;82.30;;;;;;4979929;28;20109;-63
2023/10/04 07:58:14;;;;;;;3.47;2.10;;;14.00;82.20;;;;;;4975546;28;20054;-63
2023/10/04 08:00:41;;;;;;;5.68;2.22;;;14.10;81.70;;;;;;4974075;28;21696;-64
2023/10/04 08:03:08;;;;;;;3.53;1.95;;;14.20;81.20;;;;;;4980160;28;20031;-63
2023/10/04 08:05:35;;;;;;;4.53;2.20;;;14.30;81.00;;;;;;4979864;28;20533;-63
2023/10/04 08:08:02;;;;;;;3.63;2.05;;;14.30;80.80;;;;;;4982502;28;20042;-63
2023/10/04 08:10:31;;;;;;;5.32;1.90;;;14.40;80.40;;;;;;4976483;28;20062;-64
2023/10/04 08:12:59;;;;;;;4.30;1.70;;;14.50;79.80;;;;;;4969954;28;20514;-64
2023/10/04 08:15:26;;;;;;;3.38;1.83;;;14.60;79.60;;;;;;4979451;28;20145;-63
2023/10/04 08:17:53;;;;;;;3.00;1.45;;;14.60;79.20;;;;;;4980289;28;20618;-63
2023/10/04 08:20:23;;;;;;;3.67;1.48;;;14.70;78.90;;;;;;4977163;28;20045;-63
2023/10/04 08:22:50;;;;;;;3.83;1.50;;;14.80;78.80;;;;;;4978867;28;20097;-63
2023/10/04 08:25:17;;;;;;;4.93;1.30;;;14.80;78.50;;;;;;4975889;28;20797;-63
2023/10/04 08:27:43;;;;;;;3.95;1.20;;;14.90;77.90;;;;;;4981339;28;20137;-63
2023/10/04 08:30:18;;;;;;;2.55;1.40;;;15.00;77.30;;;;;;4978898;28;20112;-65
2023/10/04 08:32:51;;;;;;;2.90;1.40;;;15.10;77.00;;;;;;4984467;28;20398;-63
2023/10/04 08:35:51;;;;;;;6.63;1.50;;;15.20;76.70;;;;;;4982166;28;20065;-63
2023/10/04 08:38:10;;;;;;;4.03;1.23;;;15.20;76.70;;;;;;4980606;28;20136;-63
2023/10/04 08:40:42;;;;;;;2.28;1.20;;;15.30;76.40;;;;;;4975703;28;20558;-63
2023/10/04 08:43:08;;;;;;;1.90;0.90;;;15.40;76.10;;;;;;4983245;28;20108;-63
2023/10/04 08:45:34;;;;;;;2.03;1.00;;;15.50;74.90;;;;;;4979250;28;20030;-63
2023/10/04 08:48:00;;;;;;;2.50;1.13;;;15.50;73.50;;;;;;4978950;28;20042;-63
2023/10/04 08:50:38;;;;;;;3.10;0.88;;;15.60;73.10;;;;;;4976147;28;20672;-63
2023/10/04 08:53:38;;;;;;;3.33;1.08;;;15.60;72.80;;;;;;4979669;28;20122;-63
2023/10/04 08:56:13;;;;;;;4.28;1.33;;;15.70;71.90;;;;;;4977366;28;20026;-63
2023/10/04 08:58:43;;;;;;;6.05;1.38;;;15.70;72.20;;;;;;4979496;28;20039;-63
2023/10/04 09:01:11;;;;;;;6.40;1.17;;;15.80;72.50;;;;;;4980991;28;20058;-63
2023/10/04 09:03:40;;;;;;;2.22;0.95;;;15.80;72.80;;;;;;4985830;28;20066;-63
2023/10/04 09:06:10;;;;;;;4.20;1.40;;;15.90;72.60;;;;;;4986098;28;20109;-63
2023/10/04 09:08:39;;;;;;;3.70;1.13;;;15.90;72.00;;;;;;4980203;28;20041;-63
2023/10/04 09:11:10;;;;;;;2.60;1.00;;;15.90;72.30;;;;;;4980367;28;20048;-63
2023/10/04 09:13:48;;;;;;;3.00;1.05;;;16.00;72.30;;;;;;4986132;28;20042;-63
2023/10/04 09:16:26;;;;;;;1.98;1.10;;;16.00;71.90;;;;;;4985252;28;20072;-63
2023/10/04 09:19:18;;;;;;;2.45;1.30;;;16.10;71.40;;;;;;4986481;28;20030;-63
2023/10/04 09:21:51;;;;;;;3.67;1.38;;;16.10;70.60;;;;;;4985704;28;20042;-63
2023/10/04 09:24:17;;;;;;;2.00;0.98;;;16.20;69.90;;;;;;4981712;28;20062;-63
2023/10/04 09:26:54;;;;;;;2.25;1.20;;;16.30;70.60;;;;;;4985062;28;20112;-63
2023/10/04 09:29:32;;;;;;;3.58;1.50;;;16.30;69.20;;;;;;4983610;28;20137;-63
2023/10/04 09:31:58;;;;;;;1.90;1.15;;;16.30;68.60;;;;;;4981977;28;20046;-63
2023/10/04 09:34:24;;;;;;;2.30;1.30;;;16.40;69.50;;;;;;4984856;28;20034;-65
2023/10/04 09:36:54;;;;;;;1.75;1.05;;;16.40;69.10;;;;;;4985493;28;20053;-63
2023/10/04 09:39:32;;;;;;;3.20;1.23;;;16.50;68.60;;;;;;4982790;28;20062;-63
2023/10/04 09:42:04;;;;;;;2.85;0.98;;;16.50;68.50;;;;;;4984432;28;20026;-63
2023/10/04 09:44:31;;;;;;;1.55;1.05;;;16.60;68.80;;;;;;4982886;28;20042;-63
2023/10/04 09:47:02;;;;;;;2.67;1.00;;;16.60;68.00;;;;;;4984850;28;20037;-63
2023/10/04 09:49:36;;;;;;;4.20;1.27;;;16.70;68.30;;;;;;4984568;28;20972;-63
2023/10/04 09:52:16;;;;;;;3.20;1.17;;;16.70;68.50;;;;;;4983064;28;20042;-63
2023/10/04 09:54:43;;;;;;;2.88;1.00;;;16.80;68.30;;;;;;4981846;28;20069;-63
2023/10/04 09:57:12;;;;;;;1.73;1.15;;;16.90;68.10;;;;;;4985316;28;20153;-63
2023/10/04 09:59:39;;;;;;;3.45;1.30;;;16.90;67.80;;;;;;4986762;28;20498;-63
2023/10/04 10:02:11;;;;;;;2.42;1.20;;;17.00;67.40;;;;;;4986742;28;20054;-63
2023/10/04 10:04:43;;;;;;;1.80;0.85;;;17.00;66.90;;;;;;4986456;28;20027;-63
2023/10/04 10:07:18;;;;;;;2.72;1.30;;;17.10;66.90;;;;;;4986927;28;20038;-63
2023/10/04 10:10:04;;;;;;;3.08;1.10;;;17.20;67.10;;;;;;4986852;28;20038;-63
2023/10/04 10:12:31;;;;;;;1.88;0.90;;;17.30;67.00;;;;;;4983485;28;20112;-63
2023/10/04 10:15:02;;;;;;;2.25;1.30;;;17.40;67.20;;;;;;4987069;28;20158;-63
2023/10/04 10:17:30;;;;;;;2.78;1.35;;;17.50;66.40;;;;;;4987006;28;20031;-64
2023/10/04 10:19:56;;;;;;;2.38;1.30;;;17.50;66.80;;;;;;4979733;28;20038;-63
2023/10/04 10:22:22;;;;;;;1.80;1.05;;;17.70;66.40;;;;;;4989867;28;20062;-63
2023/10/04 10:24:56;;;;;;;5.88;1.25;;;17.70;66.40;;;;;;4989547;28;20489;-63
2023/10/04 10:27:24;;;;;;;2.65;1.13;;;17.80;65.50;;;;;;4991005;28;20039;-63
2023/10/04 10:29:50;;;;;;;2.08;1.27;;;17.90;66.20;;;;;;4990844;28;20125;-63
2023/10/04 10:32:22;;;;;;;2.35;1.20;;;17.90;65.50;;;;;;4989924;28;20030;-63
2023/10/04 10:34:50;;;;;;;1.85;1.08;;;18.00;65.40;;;;;;4989861;28;20506;-63
2023/10/04 10:37:17;;;;;;;3.85;1.10;;;18.00;65.30;;;;;;4990386;28;20520;-63
2023/10/04 10:39:45;;;;;;;2.67;1.45;;;18.20;65.00;;;;;;4990504;28;20039;-63
2023/10/04 10:42:11;;;;;;;2.20;1.20;;;18.10;64.40;;;;;;4990391;28;20027;-63
2023/10/04 10:44:39;;;;;;;2.00;1.00;;;18.20;64.40;;;;;;4989514;28;20157;-63
2023/10/04 10:47:25;;;;;;;1.70;0.90;;;18.30;64.30;;;;;;4990210;28;20035;-63
2023/10/04 10:49:56;;;;;;;2.03;1.10;;;18.40;62.20;;;;;;4990649;28;20426;-63
2023/10/04 10:52:24;;;;;;;2.35;0.77;;;18.40;63.40;;;;;;4988840;28;20089;-63
2023/10/04 10:54:50;;;;;;;2.65;1.23;;;18.50;64.00;;;;;;4988516;28;20089;-64
2023/10/04 10:57:21;;;;;;;1.92;1.33;;;18.60;63.90;;;;;;4986221;28;20470;-63
2023/10/04 10:59:48;;;;;;;2.63;1.30;;;18.70;62.90;;;;;;4987595;28;20037;-63
2023/10/04 11:02:14;;;;;;;2.13;1.10;;;18.80;62.90;;;;;;4987483;28;20418;-63
2023/10/04 11:04:39;;;;;;;2.50;1.20;;;18.80;63.10;;;;;;4988765;28;20056;-63
2023/10/04 11:07:11;;;;;;;2.30;1.10;;;19.00;62.90;;;;;;4989728;28;20530;-63
2023/10/04 11:09:38;;;;;;;2.50;1.27;;;19.10;62.70;;;;;;4989842;28;20045;-64
2023/10/04 11:12:07;;;;;;;1.73;1.10;;;19.20;62.40;;;;;;4988633;28;20988;-63
2023/10/04 11:14:34;;;;;;;1.65;1.10;;;19.30;61.00;;;;;;4989003;28;20049;-63
2023/10/04 11:17:01;;;;;;;3.25;1.20;;;19.40;60.30;;;;;;4989617;28;20049;-64
2023/10/04 11:19:26;;;;;;;1.42;1.02;;;19.40;60.70;;;;;;4989637;28;20053;-63
2023/10/04 11:21:52;;;;;;;2.60;1.13;;;19.40;60.30;;;;;;4988891;28;20092;-63
2023/10/04 11:24:20;;;;;;;2.03;1.33;;;19.50;59.60;;;;;;4988985;28;20089;-64
2023/10/04 11:26:46;;;;;;;2.78;1.25;;;19.50;59.20;;;;;;4988050;28;20038;-63
2023/10/04 11:29:12;;;;;;;1.83;0.95;;;19.40;59.50;;;;;;4989509;28;20034;-64
2023/10/04 11:31:38;;;;;;;3.53;1.30;;;19.40;59.70;;;;;;4987445;28;20053;-63
2023/10/04 11:34:04;;;;;;;1.48;0.98;;;19.40;59.00;;;;;;4989626;28;20030;-63
2023/10/04 11:36:34;;;;;;;1.55;1.10;;;19.40;59.50;;;;;;4988216;28;20077;-63
2023/10/04 11:39:00;;;;;;;3.88;1.23;;;19.40;59.80;;;;;;4987698;28;20117;-64
2023/10/04 11:41:29;;;;;;;1.52;0.93;;;19.50;60.30;;;;;;4986129;28;20137;-63
2023/10/04 11:44:02;;;;;;;3.08;1.35;;;19.50;59.60;;;;;;4986390;28;20506;-63
2023/10/04 11:46:29;;;;;;;1.70;1.20;;;19.50;60.00;;;;;;4986298;28;20038;-64
2023/10/04 11:49:13;;;;;;;2.63;1.42;;;19.60;60.10;;;;;;4988214;28;20038;-63
2023/10/04 11:51:39;;;;;;;2.42;1.15;;;19.60;59.00;;;;;;4989030;28;20053;-63
2023/10/04 11:54:05;;;;;;;2.40;1.15;;;19.70;58.60;;;;;;4989226;28;20042;-63
2023/10/04 11:56:39;;;;;;;3.13;1.17;;;19.70;58.30;;;;;;4988564;28;20064;-64
2023/10/04 11:59:05;;;;;;;2.93;1.10;;;19.70;57.00;;;;;;4989713;28;20030;-63
2023/10/04 12:01:30;;;;;;;2.58;1.38;;;19.70;57.90;;;;;;4988549;28;20034;-63
2023/10/04 12:03:56;;;;;;;2.67;1.25;;;19.60;58.10;;;;;;4987686;28;20042;-63
2023/10/04 12:06:26;;;;;;;2.25;1.30;;;19.60;58.40;;;;;;4985542;28;20035;-63
2023/10/04 12:08:55;;;;;;;2.08;1.20;;;19.60;58.60;;;;;;4987547;28;20039;-63
2023/10/04 12:11:25;;;;;;;2.15;0.93;;;19.60;58.70;;;;;;4986411;28;20109;-63
2023/10/04 12:13:52;;;;;;;1.90;1.00;;;19.50;58.70;;;;;;4986990;28;20042;-63
2023/10/04 12:16:18;;;;;;;2.40;1.30;;;19.60;58.40;;;;;;4988710;28;20045;-63
2023/10/04 12:18:45;;;;;;;2.10;1.25;;;19.50;58.10;;;;;;4987138;28;20038;-64
2023/10/04 12:21:12;;;;;;;2.47;1.30;;;19.50;57.60;;;;;;4988714;28;20097;-64
2023/10/04 12:23:38;;;;;;;1.85;1.10;;;19.40;57.80;;;;;;4988568;28;20042;-64
2023/10/04 12:26:06;;;;;;;3.10;1.33;;;19.40;57.70;;;;;;4987745;28;20041;-63
2023/10/04 12:28:32;;;;;;;2.75;1.05;;;19.40;58.10;;;;;;4985456;28;20062;-64
2023/10/04 12:31:02;;;;;;;1.58;1.10;;;19.40;58.40;;;;;;4985357;28;20542;-63
2023/10/04 12:33:34;;;;;;;1.95;1.23;;;19.40;58.30;;;;;;4981720;28;20066;-63
2023/10/04 12:35:59;;;;;;;1.70;1.20;;;19.40;58.50;;;;;;4987050;28;20038;-63
2023/10/04 12:38:25;;;;;;;1.40;1.10;;;19.50;58.20;;;;;;4988182;28;20379;-63
2023/10/04 12:40:51;;;;;;;4.05;1.17;;;19.50;58.10;;;;;;4987375;28;20132;-63
2023/10/04 12:43:17;;;;;;;2.10;1.00;;;19.50;58.20;;;;;;4984878;28;20065;-63
2023/10/04 12:45:46;;;;;;;3.15;1.30;;;19.60;58.20;;;;;;4987967;28;20038;-64
2023/10/04 12:48:16;;;;;;;1.83;1.23;;;19.60;56.90;;;;;;4988363;28;20073;-63
2023/10/04 12:50:45;;;;;;;2.35;1.30;;;19.60;56.90;;;;;;4987219;28;20513;-63